createdAt,value
2018-12-17T00:02:01.086Z,16.07
2018-12-17T00:04:29.182Z,15.90
2018-12-17T00:06:57.466Z,16.60
2018-12-17T00:09:25.519Z,17.93
2018-12-17T00:11:53.639Z,16.90
2018-12-17T00:14:22.611Z,16.30
2018-12-17T00:16:50.774Z,14.03
2018-12-17T00:19:19.227Z,14.00
2018-12-17T00:21:47.993Z,14.98
2018-12-17T00:24:16.239Z,16.50
2018-12-17T00:26:44.603Z,15.33
2018-12-17T00:29:12.660Z,15.87
2018-12-17T00:31:40.760Z,17.17
2018-12-17T00:34:09.323Z,15.50
2018-12-17T00:36:37.369Z,15.67
2018-12-17T00:39:06.263Z,15.08
2018-12-17T00:41:34.911Z,14.35
2018-12-17T00:44:03.275Z,14.03
2018-12-17T00:46:31.951Z,15.15
2018-12-17T00:49:00.642Z,14.53
2018-12-17T00:51:28.981Z,13.78
2018-12-17T00:53:57.426Z,14.93
2018-12-17T00:56:25.756Z,13.68
2018-12-17T00:58:54.082Z,16.62
2018-12-17T01:01:22.440Z,16.55
2018-12-17T01:03:51.133Z,15.40
2018-12-17T01:06:19.463Z,13.72
2018-12-17T01:08:47.894Z,14.85
2018-12-17T01:11:16.232Z,14.10
2018-12-17T01:13:44.643Z,15.45
2018-12-17T01:16:13.799Z,13.35
2018-12-17T01:18:42.228Z,13.85
2018-12-17T01:21:10.576Z,13.58
2018-12-17T01:23:39.052Z,13.88
2018-12-17T01:26:07.767Z,13.72
2018-12-17T01:28:36.900Z,14.55
2018-12-17T01:31:05.230Z,14.50
2018-12-17T01:33:34.499Z,14.38
2018-12-17T01:36:02.846Z,15.50
2018-12-17T01:38:31.596Z,14.53
2018-12-17T01:41:00.000Z,12.80
2018-12-17T01:43:28.451Z,14.60
2018-12-17T01:45:56.873Z,14.13
2018-12-17T01:48:25.183Z,14.30
2018-12-17T01:50:53.625Z,14.05
2018-12-17T01:53:21.972Z,13.85
2018-12-17T01:55:50.379Z,14.50
2018-12-17T01:58:18.763Z,13.62
2018-12-17T02:00:47.822Z,14.85
2018-12-17T02:03:16.238Z,15.23
2018-12-17T02:05:44.593Z,15.60
2018-12-17T02:08:13.138Z,15.58
2018-12-17T02:10:41.495Z,14.43
2018-12-17T02:13:10.150Z,16.12
2018-12-17T02:15:38.557Z,16.30
2018-12-17T02:18:06.900Z,17.85
2018-12-17T02:20:35.214Z,15.70
2018-12-17T02:23:03.591Z,19.95
2018-12-17T02:25:32.137Z,19.62
2018-12-17T02:28:01.807Z,21.60
2018-12-17T02:30:30.168Z,21.62
2018-12-17T02:32:58.759Z,20.25
2018-12-17T02:35:27.138Z,22.02
2018-12-17T02:37:56.224Z,23.10
2018-12-17T02:40:24.549Z,21.07
2018-12-17T02:42:52.983Z,21.05
2018-12-17T02:45:21.943Z,22.87
2018-12-17T02:47:50.367Z,21.93
2018-12-17T02:50:18.692Z,21.75
2018-12-17T02:52:47.066Z,20.32
2018-12-17T02:55:15.388Z,19.62
2018-12-17T02:57:43.986Z,18.48
2018-12-17T03:00:13.097Z,18.10
2018-12-17T03:02:42.175Z,17.60
2018-12-17T03:05:10.563Z,16.12
2018-12-17T03:07:39.420Z,15.58
2018-12-17T03:10:07.775Z,16.32
2018-12-17T03:12:36.930Z,13.65
2018-12-17T03:15:05.820Z,13.83
2018-12-17T03:17:34.150Z,13.05
2018-12-17T03:20:02.490Z,14.63
2018-12-17T03:22:30.844Z,13.00
2018-12-17T03:24:59.462Z,14.87
2018-12-17T03:27:27.825Z,15.15
2018-12-17T03:29:56.492Z,14.00
2018-12-17T03:32:25.544Z,13.85
2018-12-17T03:34:53.988Z,13.38
2018-12-17T03:37:22.302Z,13.20
2018-12-17T03:39:51.147Z,13.78
2018-12-17T03:42:19.485Z,13.03
2018-12-17T03:44:47.817Z,13.38
2018-12-17T03:47:16.207Z,14.30
2018-12-17T03:49:44.876Z,12.75
2018-12-17T03:52:13.268Z,12.35
2018-12-17T03:54:41.645Z,12.65
2018-12-17T03:57:10.851Z,11.90
2018-12-17T03:59:39.635Z,11.33
2018-12-17T04:02:08.322Z,11.70
2018-12-17T04:04:36.726Z,11.73
2018-12-17T04:07:05.894Z,12.68
2018-12-17T04:09:34.237Z,11.40
2018-12-17T04:12:02.666Z,12.37
2018-12-17T04:14:30.994Z,12.20
2018-12-17T04:16:59.321Z,12.03
2018-12-17T04:19:28.281Z,12.95
2018-12-17T04:21:57.103Z,13.18
2018-12-17T04:24:26.247Z,12.13
2018-12-17T04:26:54.687Z,12.63
2018-12-17T04:29:23.259Z,11.85
2018-12-17T04:31:51.643Z,11.28
2018-12-17T04:34:20.027Z,11.30
2018-12-17T04:36:49.231Z,12.30
2018-12-17T04:39:18.392Z,11.38
2018-12-17T04:41:46.730Z,12.33
2018-12-17T04:44:15.066Z,13.40
2018-12-17T04:46:44.214Z,12.90
2018-12-17T04:49:12.659Z,13.58
2018-12-17T04:51:41.617Z,11.88
2018-12-17T04:54:10.859Z,12.63
2018-12-17T04:56:39.623Z,12.90
2018-12-17T04:59:14.362Z,11.93
2018-12-17T05:01:38.353Z,11.83
2018-12-17T05:04:06.765Z,12.55
2018-12-17T05:06:35.129Z,12.53
2018-12-17T05:09:03.887Z,11.93
2018-12-17T05:11:32.639Z,12.93
2018-12-17T05:14:00.972Z,12.45
2018-12-17T05:16:30.627Z,14.95
2018-12-17T05:18:58.976Z,14.20
2018-12-17T05:21:27.450Z,13.55
2018-12-17T05:23:55.828Z,14.33
2018-12-17T05:26:24.179Z,13.75
2018-12-17T05:28:53.126Z,13.85
2018-12-17T05:31:21.466Z,14.43
2018-12-17T05:33:49.854Z,13.32
2018-12-17T05:36:18.659Z,14.87
2018-12-17T05:38:46.998Z,13.15
2018-12-17T05:41:15.326Z,13.85
2018-12-17T05:43:44.072Z,12.45
2018-12-17T05:46:12.629Z,13.18
2018-12-17T05:48:40.959Z,11.60
2018-12-17T05:51:09.299Z,13.25
2018-12-17T05:53:37.623Z,13.38
2018-12-17T05:56:05.959Z,12.68
2018-12-17T05:58:35.227Z,13.45
2018-12-17T06:01:03.570Z,12.75
2018-12-17T06:03:31.908Z,14.30
2018-12-17T06:06:01.050Z,14.18
2018-12-17T06:08:29.384Z,13.13
2018-12-17T06:10:57.728Z,13.88
2018-12-17T06:13:26.061Z,11.10
2018-12-17T06:15:54.774Z,11.78
2018-12-17T06:18:24.023Z,11.65
2018-12-17T06:20:52.545Z,12.10
2018-12-17T06:23:21.504Z,13.45
2018-12-17T06:25:49.831Z,11.97
2018-12-17T06:28:18.242Z,11.48
2018-12-17T06:30:46.570Z,13.78
2018-12-17T06:33:15.757Z,11.78
2018-12-17T06:35:44.584Z,11.35
2018-12-17T06:38:13.163Z,12.93
2018-12-17T06:40:42.243Z,12.68
2018-12-17T06:43:10.842Z,12.58
2018-12-17T06:45:39.776Z,12.40
2018-12-17T06:48:08.228Z,12.50
2018-12-17T06:50:36.610Z,12.88
2018-12-17T06:53:05.400Z,12.35
2018-12-17T06:55:34.560Z,12.13
2018-12-17T06:58:03.166Z,12.43
2018-12-17T07:00:32.220Z,12.35
2018-12-17T07:03:00.556Z,12.30
2018-12-17T07:05:29.107Z,12.82
2018-12-17T07:07:58.338Z,14.10
2018-12-17T07:10:27.476Z,14.40
2018-12-17T07:12:55.927Z,14.83
2018-12-17T07:15:24.277Z,13.20
2018-12-17T07:17:53.094Z,14.38
2018-12-17T07:20:21.435Z,13.25
2018-12-17T07:22:49.765Z,14.85
2018-12-17T07:25:19.409Z,13.03
2018-12-17T07:27:47.761Z,12.10
2018-12-17T07:30:16.079Z,13.05
2018-12-17T07:32:45.286Z,12.80
2018-12-17T07:35:13.649Z,13.83
2018-12-17T07:37:41.992Z,13.40
2018-12-17T07:40:10.317Z,13.50
2018-12-17T07:42:38.764Z,11.68
2018-12-17T07:45:07.968Z,14.43
2018-12-17T07:47:36.432Z,14.10
2018-12-17T07:50:05.622Z,14.58
2018-12-17T07:52:34.336Z,13.40
2018-12-17T07:55:02.683Z,12.43
2018-12-17T07:57:31.447Z,13.48
2018-12-17T07:59:59.859Z,12.93
2018-12-17T08:02:28.207Z,13.50
2018-12-17T08:04:56.628Z,13.43
2018-12-17T08:07:24.953Z,13.00
2018-12-17T08:09:53.283Z,11.93
2018-12-17T08:12:22.539Z,12.73
2018-12-17T08:14:50.960Z,12.68
2018-12-17T08:17:19.296Z,13.70
2018-12-17T08:19:47.690Z,12.18
2018-12-17T08:22:16.056Z,11.73
2018-12-17T08:24:44.378Z,12.40
2018-12-17T08:27:12.443Z,13.20
2018-12-17T08:29:40.775Z,12.88
2018-12-17T08:32:09.110Z,12.25
2018-12-17T08:34:38.265Z,12.60
2018-12-17T08:37:06.634Z,12.80
2018-12-17T08:39:34.949Z,13.10
2018-12-17T08:42:03.354Z,11.43
2018-12-17T08:44:31.523Z,11.23
2018-12-17T08:47:00.615Z,10.88
2018-12-17T08:49:28.954Z,11.48
2018-12-17T08:51:57.375Z,12.07
2018-12-17T08:54:25.718Z,12.73
2018-12-17T08:56:54.065Z,11.43
2018-12-17T08:59:22.406Z,12.25
2018-12-17T09:01:50.954Z,12.40
2018-12-17T09:04:19.308Z,12.68
2018-12-17T09:06:47.771Z,11.57
2018-12-17T09:09:15.818Z,12.67
2018-12-17T09:11:44.163Z,12.18
2018-12-17T09:14:12.200Z,13.00
2018-12-17T09:16:40.281Z,10.20
2018-12-17T09:19:08.655Z,9.05
2018-12-17T09:21:37.658Z,9.57
2018-12-17T09:24:05.803Z,9.47
2018-12-17T09:26:33.877Z,8.27
2018-12-17T09:29:02.050Z,7.37
2018-12-17T09:31:30.697Z,7.00
2018-12-17T09:33:58.765Z,6.90
2018-12-17T09:36:26.803Z,5.87
2018-12-17T09:38:55.476Z,5.63
2018-12-17T09:41:23.546Z,6.60
2018-12-17T09:43:51.635Z,5.70
2018-12-17T09:46:19.673Z,5.73
2018-12-17T09:48:47.773Z,6.57
2018-12-17T09:51:19.530Z,6.00
2018-12-17T09:53:46.480Z,5.37
2018-12-17T09:56:14.542Z,5.87
2018-12-17T09:58:42.820Z,5.53
2018-12-17T10:01:10.858Z,4.87
2018-12-17T10:03:38.912Z,5.27
2018-12-17T10:06:06.977Z,4.60
2018-12-17T10:08:36.748Z,4.67
2018-12-17T10:11:04.818Z,5.10
2018-12-17T10:13:32.853Z,4.73
2018-12-17T10:16:00.969Z,4.23
2018-12-17T10:18:29.018Z,4.73
2018-12-17T10:20:57.422Z,4.70
2018-12-17T10:23:26.510Z,4.70
2018-12-17T10:25:54.595Z,7.03
2018-12-17T10:28:23.527Z,3.60
2018-12-17T10:30:51.587Z,3.37
2018-12-17T10:33:19.688Z,4.30
2018-12-17T10:35:47.757Z,3.87
2018-12-17T10:38:15.775Z,3.40
2018-12-17T10:40:43.829Z,3.90
2018-12-17T10:43:11.868Z,3.60
2018-12-17T10:45:39.992Z,4.00
2018-12-17T10:48:08.028Z,3.87
2018-12-17T10:50:36.087Z,4.67
2018-12-17T10:53:04.359Z,4.20
2018-12-17T10:55:32.415Z,3.93
2018-12-17T10:58:00.453Z,5.07
2018-12-17T11:00:39.377Z,3.40
2018-12-17T11:03:06.112Z,4.03
2018-12-17T11:05:35.541Z,3.80
2018-12-17T11:08:03.673Z,3.93
2018-12-17T11:10:31.705Z,3.97
2018-12-17T11:12:59.746Z,3.67
2018-12-17T11:15:27.792Z,3.70
2018-12-17T11:17:55.902Z,3.60
2018-12-17T11:20:23.958Z,4.03
2018-12-17T11:22:52.004Z,3.57
2018-12-17T11:25:20.765Z,3.10
2018-12-17T11:27:48.816Z,3.23
2018-12-17T11:30:17.004Z,3.40
2018-12-17T11:32:45.047Z,3.37
2018-12-17T11:35:14.041Z,3.77
2018-12-17T11:37:42.083Z,2.77
2018-12-17T11:40:10.107Z,4.07
2018-12-17T11:42:38.176Z,2.67
2018-12-17T11:45:06.264Z,2.70
2018-12-17T11:47:34.346Z,2.90
2018-12-17T11:50:02.389Z,3.13
2018-12-17T11:52:30.437Z,2.77
2018-12-17T11:54:58.509Z,3.00
2018-12-17T11:57:28.264Z,2.70
2018-12-17T11:59:56.532Z,3.20
2018-12-17T12:02:24.560Z,3.17
2018-12-17T12:04:52.776Z,3.10
2018-12-17T12:07:21.340Z,2.80
2018-12-17T12:09:49.367Z,3.10
2018-12-17T12:12:17.918Z,2.93
2018-12-17T12:14:46.074Z,3.60
2018-12-17T12:17:14.231Z,4.13
2018-12-17T12:19:42.456Z,3.67
2018-12-17T12:22:11.022Z,3.70
2018-12-17T12:24:39.069Z,3.97
2018-12-17T12:27:07.113Z,3.57
2018-12-17T12:29:35.239Z,3.17
2018-12-17T12:32:03.271Z,4.37
2018-12-17T12:34:31.311Z,3.43
2018-12-17T12:36:59.353Z,3.90
2018-12-17T12:39:27.424Z,3.63
2018-12-17T12:41:55.677Z,3.10
2018-12-17T12:44:23.895Z,3.60
2018-12-17T12:46:51.934Z,3.10
2018-12-17T12:49:19.997Z,3.80
2018-12-17T12:51:48.137Z,3.33
2018-12-17T12:54:16.155Z,3.00
2018-12-17T12:56:44.216Z,2.90
2018-12-17T12:59:13.222Z,3.27
2018-12-17T13:01:41.291Z,3.37
2018-12-17T13:04:09.587Z,3.17
2018-12-17T13:06:37.648Z,3.63
2018-12-17T13:09:06.875Z,3.10
2018-12-17T13:11:34.938Z,3.67
2018-12-17T13:14:03.420Z,3.50
2018-12-17T13:16:31.495Z,3.40
2018-12-17T13:18:59.681Z,3.20
2018-12-17T13:21:27.714Z,3.17
2018-12-17T13:23:56.479Z,2.80
2018-12-17T13:26:24.544Z,3.50
2018-12-17T13:28:52.671Z,3.07
2018-12-17T13:31:20.743Z,3.10
2018-12-17T13:33:48.770Z,3.40
2018-12-17T13:36:16.893Z,2.90
2018-12-17T13:38:44.945Z,3.57
2018-12-17T13:41:13.693Z,3.40
2018-12-17T13:43:41.853Z,3.53
2018-12-17T13:46:09.881Z,88.70
2018-12-17T13:48:37.934Z,4.83
2018-12-17T13:51:11.373Z,3.70
2018-12-17T13:53:39.422Z,3.80
2018-12-17T13:56:07.448Z,4.63
2018-12-17T13:58:35.501Z,3.30
2018-12-17T14:01:03.560Z,4.10
2018-12-17T14:03:31.616Z,4.30
2018-12-17T14:05:59.648Z,3.83
2018-12-17T14:08:27.703Z,4.00
2018-12-17T14:10:55.765Z,4.07
2018-12-17T14:13:23.795Z,4.33
2018-12-17T14:15:53.609Z,4.77
2018-12-17T14:18:27.224Z,4.23
2018-12-17T14:21:00.791Z,4.60
2018-12-17T14:23:28.846Z,3.97
2018-12-17T14:25:56.942Z,3.47
2018-12-17T14:28:24.948Z,4.40
2018-12-17T14:30:52.999Z,4.53
2018-12-17T14:33:21.083Z,4.27
2018-12-17T14:35:54.740Z,4.37
2018-12-17T14:38:22.815Z,4.90
2018-12-17T14:40:50.844Z,2.90
2018-12-17T14:43:18.901Z,2.80
2018-12-17T14:45:46.951Z,1.87
2018-12-17T14:48:15.001Z,2.10
2018-12-17T14:50:43.052Z,1.57
2018-12-17T14:53:11.099Z,1.80
2018-12-17T14:55:39.146Z,2.00
2018-12-17T14:58:07.217Z,1.60
2018-12-17T15:00:35.347Z,2.20
2018-12-17T15:03:05.367Z,2.10
2018-12-17T15:05:33.504Z,2.10
2018-12-17T15:08:01.553Z,2.30
2018-12-17T15:10:29.586Z,1.70
2018-12-17T15:12:57.647Z,1.60
2018-12-17T15:15:25.711Z,1.60
2018-12-17T15:17:53.789Z,1.30
2018-12-17T15:20:21.819Z,1.50
2018-12-17T15:22:49.876Z,1.20
2018-12-17T15:25:17.952Z,1.30
2018-12-17T15:27:46.260Z,1.30
2018-12-17T15:30:14.531Z,1.20
2018-12-17T15:32:42.608Z,1.00
2018-12-17T15:35:10.647Z,1.40
2018-12-17T15:37:38.710Z,1.30
2018-12-17T15:40:06.826Z,1.57
2018-12-17T15:42:40.795Z,1.60
2018-12-17T15:45:05.206Z,1.67
2018-12-17T15:47:33.268Z,1.53
2018-12-17T15:50:01.304Z,1.60
2018-12-17T15:52:29.655Z,2.33
2018-12-17T15:54:57.704Z,1.87
2018-12-17T15:57:25.767Z,1.40
2018-12-17T15:59:53.803Z,1.40
2018-12-17T16:02:21.843Z,1.50
2018-12-17T16:04:49.906Z,1.70
2018-12-17T16:07:17.947Z,1.90
2018-12-17T16:09:45.993Z,2.27
2018-12-17T16:12:14.237Z,2.13
2018-12-17T16:14:42.530Z,2.00
2018-12-17T16:17:10.597Z,2.17
2018-12-17T16:19:38.666Z,2.30
2018-12-17T16:22:06.726Z,2.70
2018-12-17T16:24:34.794Z,2.20
2018-12-17T16:27:02.818Z,2.67
2018-12-17T16:29:30.886Z,2.93
2018-12-17T16:31:58.920Z,3.40
2018-12-17T16:34:26.970Z,3.07
2018-12-17T16:36:55.382Z,3.00
2018-12-17T16:39:23.625Z,3.17
2018-12-17T16:41:51.680Z,2.50
2018-12-17T16:44:19.774Z,3.03
2018-12-17T16:46:47.826Z,2.63
2018-12-17T16:49:15.873Z,2.50
2018-12-17T16:51:43.935Z,3.00
2018-12-17T16:54:11.983Z,3.37
2018-12-17T16:56:40.038Z,3.20
2018-12-17T16:59:08.083Z,3.50
2018-12-17T17:01:36.219Z,3.53
2018-12-17T17:04:04.303Z,3.50
2018-12-17T17:06:32.371Z,3.27
2018-12-17T17:09:00.403Z,3.70
2018-12-17T17:11:28.459Z,3.80
2018-12-17T17:13:56.503Z,3.70
2018-12-17T17:16:24.581Z,4.40
2018-12-17T17:18:52.667Z,3.23
2018-12-17T17:21:20.758Z,3.60
2018-12-17T17:23:48.813Z,2.97
2018-12-17T17:26:16.894Z,3.57
2018-12-17T17:28:44.956Z,3.10
2018-12-17T17:31:12.987Z,2.83
2018-12-17T17:33:41.030Z,3.60
2018-12-17T17:36:09.067Z,2.73
2018-12-17T17:38:37.188Z,3.70
2018-12-17T17:41:05.203Z,3.80
2018-12-17T17:43:33.271Z,3.87
2018-12-17T17:46:01.304Z,3.57
2018-12-17T17:48:29.356Z,4.37
2018-12-17T17:50:57.407Z,3.83
2018-12-17T17:53:25.478Z,4.07
2018-12-17T17:55:53.512Z,3.70
2018-12-17T17:58:21.560Z,3.87
2018-12-17T18:00:49.697Z,4.23
2018-12-17T18:03:17.734Z,4.17
2018-12-17T18:05:45.796Z,3.73
2018-12-17T18:08:13.852Z,4.00
2018-12-17T18:10:41.945Z,3.80
2018-12-17T18:13:09.991Z,3.83
2018-12-17T18:15:38.079Z,3.37
2018-12-17T18:18:06.121Z,3.80
2018-12-17T18:20:34.216Z,5.93
2018-12-17T18:23:02.299Z,4.47
2018-12-17T18:25:30.347Z,4.00
2018-12-17T18:27:58.454Z,3.80
2018-12-17T18:30:26.930Z,4.00
2018-12-17T18:32:54.990Z,4.10
2018-12-17T18:35:23.056Z,3.90
2018-12-17T18:37:51.568Z,4.10
2018-12-17T18:40:19.628Z,6.00
2018-12-17T18:42:47.672Z,4.60
2018-12-17T18:45:15.728Z,5.00
2018-12-17T18:47:43.785Z,5.03
2018-12-17T18:50:11.911Z,4.57
2018-12-17T18:52:39.986Z,4.30
2018-12-17T18:55:08.052Z,5.30
2018-12-17T18:57:36.123Z,4.30
2018-12-17T19:00:05.367Z,4.60
2018-12-17T19:02:33.424Z,4.63
2018-12-17T19:05:01.489Z,4.73
2018-12-17T19:07:29.587Z,4.50
2018-12-17T19:09:57.642Z,5.37
2018-12-17T19:12:25.676Z,4.70
2018-12-17T19:14:53.747Z,5.00
2018-12-17T19:17:21.871Z,4.47
2018-12-17T19:19:49.916Z,4.40
2018-12-17T19:22:17.970Z,5.70
2018-12-17T19:24:46.019Z,4.90
2018-12-17T19:27:14.073Z,4.43
2018-12-17T19:29:42.124Z,5.20
2018-12-17T19:32:10.204Z,6.00
2018-12-17T19:34:38.258Z,5.90
2018-12-17T19:37:06.295Z,5.60
2018-12-17T19:39:34.370Z,6.13
2018-12-17T19:42:02.404Z,7.07
2018-12-17T19:44:30.510Z,7.00
2018-12-17T19:46:58.605Z,6.60
2018-12-17T19:49:26.678Z,5.93
2018-12-17T19:51:54.749Z,6.90
2018-12-17T19:54:23.031Z,7.83
2018-12-17T19:56:51.242Z,5.80
2018-12-17T19:59:19.259Z,6.97
2018-12-17T20:01:47.414Z,6.53
2018-12-17T20:04:16.099Z,7.10
2018-12-17T20:06:44.139Z,7.03
2018-12-17T20:09:12.249Z,6.70
2018-12-17T20:11:40.297Z,6.27
2018-12-17T20:14:08.739Z,5.20
2018-12-17T20:16:37.716Z,5.90
2018-12-17T20:19:05.916Z,5.60
2018-12-17T20:21:34.788Z,6.23
2018-12-17T20:24:05.269Z,5.60
2018-12-17T20:26:33.786Z,5.77
2018-12-17T20:29:01.823Z,6.50
2018-12-17T20:31:29.957Z,6.80
2018-12-17T20:33:58.006Z,7.30
2018-12-17T20:36:26.489Z,7.30
2018-12-17T20:38:54.573Z,7.60
2018-12-17T20:41:22.733Z,8.00
2018-12-17T20:43:51.300Z,6.93
2018-12-17T20:46:19.395Z,6.83
2018-12-17T20:48:47.469Z,7.23
2018-12-17T20:51:15.937Z,6.97
2018-12-17T20:53:44.618Z,7.23
2018-12-17T20:56:12.696Z,8.43
2018-12-17T20:58:41.646Z,7.13
2018-12-17T21:01:09.781Z,8.73
2018-12-17T21:03:37.828Z,7.67
2018-12-17T21:06:06.676Z,7.20
2018-12-17T21:08:34.742Z,7.43
2018-12-17T21:11:02.786Z,7.57
2018-12-17T21:13:30.979Z,8.17
2018-12-17T21:15:59.926Z,7.90
2018-12-17T21:18:28.035Z,7.80
2018-12-17T21:20:56.090Z,7.73
2018-12-17T21:23:24.167Z,7.60
2018-12-17T21:25:52.413Z,6.80
2018-12-17T21:28:20.676Z,7.20
2018-12-17T21:30:48.904Z,7.27
2018-12-17T21:33:16.942Z,6.70
2018-12-17T21:35:45.045Z,7.67
2018-12-17T21:38:13.105Z,7.80
2018-12-17T21:40:41.141Z,7.40
2018-12-17T21:43:09.793Z,7.50
2018-12-17T21:45:37.846Z,7.10
2018-12-17T21:48:05.931Z,7.23
2018-12-17T21:50:34.091Z,9.57
2018-12-17T21:53:02.185Z,7.40
2018-12-17T21:55:30.883Z,7.43
2018-12-17T21:57:59.545Z,6.33
2018-12-17T22:00:28.212Z,6.27
2018-12-17T22:02:57.159Z,7.13
2018-12-17T22:05:25.224Z,6.73
2018-12-17T22:07:53.273Z,6.50
2018-12-17T22:10:25.444Z,7.37
2018-12-17T22:12:53.676Z,7.23
2018-12-17T22:15:22.705Z,7.03
2018-12-17T22:17:51.203Z,7.20
2018-12-17T22:20:19.255Z,7.80
2018-12-17T22:22:47.823Z,8.57
2018-12-17T22:25:15.858Z,8.00
2018-12-17T22:27:43.990Z,7.00
2018-12-17T22:30:12.061Z,7.30
2018-12-17T22:32:40.470Z,7.37
2018-12-17T22:35:09.300Z,6.30
2018-12-17T22:37:37.537Z,6.03
2018-12-17T22:40:05.934Z,6.30
2018-12-17T22:42:34.087Z,5.23
2018-12-17T22:45:02.821Z,5.40
2018-12-17T22:47:31.459Z,5.73
2018-12-17T22:49:59.503Z,6.30
2018-12-17T22:52:27.594Z,5.03
2018-12-17T22:54:55.633Z,5.90
2018-12-17T22:57:23.707Z,5.00
2018-12-17T22:59:51.768Z,5.60
2018-12-17T23:02:19.813Z,5.80
2018-12-17T23:04:47.848Z,6.57
2018-12-17T23:07:15.968Z,6.60
2018-12-17T23:09:49.511Z,6.70
2018-12-17T23:12:23.223Z,5.60
2018-12-17T23:14:56.757Z,6.20
2018-12-17T23:17:30.534Z,6.67
2018-12-17T23:19:58.609Z,6.13
2018-12-17T23:22:26.670Z,5.93
2018-12-17T23:24:54.858Z,6.40
2018-12-17T23:27:23.700Z,6.90
2018-12-17T23:29:51.809Z,6.63
2018-12-17T23:32:20.176Z,8.40
2018-12-17T23:34:48.223Z,6.97
2018-12-17T23:37:16.278Z,6.23
2018-12-17T23:39:44.335Z,6.23
2018-12-17T23:42:12.386Z,6.23
2018-12-17T23:44:41.042Z,6.37
2018-12-17T23:47:09.317Z,6.30
2018-12-17T23:49:38.103Z,7.43
2018-12-17T23:52:06.158Z,7.47
2018-12-17T23:54:34.520Z,7.10
2018-12-17T23:57:04.156Z,8.20
2018-12-17T23:59:32.810Z,7.00
